Terminal Aerodrome Forecast
Issued by NWS

Home | Current Version | Previous Version | Text Only | Print | Product List | Glossary Off
Versions: 1 2 3 4 5 6 7 8 9 10 11 12 13

000
FTUS43 KMPX 281720
TAFRWF
TAF
KRWF 281720Z 2818/0118 18011G17KT P6SM BKN100
     FM010000 18010KT P6SM BKN030 OVC060
     FM010900 27007KT P6SM SCT030 SCT100=

USA.gov is the U.S. government's official web portal to all federal, state and local government web resources and services.